sensor_id;sensor_type;location;lat;lon;timestamp;P1;durP1;ratioP1;P2;durP2;ratioP2
55368;SDS011;41247;49.736;8.752;2022-10-23T00:00:59;7.03;;;1.27;;
55368;SDS011;41247;49.736;8.752;2022-10-23T00:04:50;2.63;;;1.23;;
55368;SDS011;41247;49.736;8.752;2022-10-23T00:08:31;5.32;;;1.02;;
55368;SDS011;41247;49.736;8.752;2022-10-23T00:12:11;5.78;;;1.17;;
55368;SDS011;41247;49.736;8.752;2022-10-23T00:15:52;5.55;;;1.33;;
55368;SDS011;41247;49.736;8.752;2022-10-23T00:19:32;6.10;;;1.20;;
55368;SDS011;41247;49.736;8.752;2022-10-23T00:23:15;4.20;;;0.80;;
55368;SDS011;41247;49.736;8.752;2022-10-23T00:26:56;5.57;;;1.25;;
55368;SDS011;41247;49.736;8.752;2022-10-23T00:30:36;4.05;;;1.20;;
55368;SDS011;41247;49.736;8.752;2022-10-23T00:34:17;6.45;;;0.93;;
55368;SDS011;41247;49.736;8.752;2022-10-23T00:37:58;7.25;;;1.10;;
55368;SDS011;41247;49.736;8.752;2022-10-23T00:41:38;4.15;;;1.20;;
55368;SDS011;41247;49.736;8.752;2022-10-23T00:45:30;7.55;;;0.93;;
55368;SDS011;41247;49.736;8.752;2022-10-23T00:49:11;3.75;;;1.10;;
55368;SDS011;41247;49.736;8.752;2022-10-23T00:52:53;4.30;;;1.25;;
55368;SDS011;41247;49.736;8.752;2022-10-23T00:56:36;7.15;;;1.25;;
55368;SDS011;41247;49.736;8.752;2022-10-23T01:00:21;8.00;;;1.30;;
55368;SDS011;41247;49.736;8.752;2022-10-23T01:04:09;3.22;;;1.25;;
55368;SDS011;41247;49.736;8.752;2022-10-23T01:07:59;6.45;;;0.90;;
55368;SDS011;41247;49.736;8.752;2022-10-23T01:12:18;4.32;;;1.10;;
55368;SDS011;41247;49.736;8.752;2022-10-23T01:16:22;5.28;;;1.33;;
55368;SDS011;41247;49.736;8.752;2022-10-23T01:28:46;4.38;;;1.30;;
55368;SDS011;41247;49.736;8.752;2022-10-23T01:32:34;5.07;;;1.33;;
55368;SDS011;41247;49.736;8.752;2022-10-23T01:36:28;6.00;;;1.17;;
55368;SDS011;41247;49.736;8.752;2022-10-23T01:40:12;6.18;;;1.13;;
55368;SDS011;41247;49.736;8.752;2022-10-23T01:44:44;12.52;;;1.50;;
55368;SDS011;41247;49.736;8.752;2022-10-23T01:48:31;7.35;;;1.27;;
55368;SDS011;41247;49.736;8.752;2022-10-23T01:52:14;8.10;;;1.30;;
55368;SDS011;41247;49.736;8.752;2022-10-23T01:55:57;5.45;;;1.40;;
55368;SDS011;41247;49.736;8.752;2022-10-23T01:59:44;7.72;;;1.10;;
55368;SDS011;41247;49.736;8.752;2022-10-23T02:03:29;5.93;;;1.15;;
55368;SDS011;41247;49.736;8.752;2022-10-23T02:07:12;7.67;;;1.13;;
55368;SDS011;41247;49.736;8.752;2022-10-23T02:11:05;3.90;;;0.73;;
55368;SDS011;41247;49.736;8.752;2022-10-23T02:14:54;3.30;;;0.80;;
55368;SDS011;41247;49.736;8.752;2022-10-23T02:18:54;4.95;;;0.90;;
55368;SDS011;41247;49.736;8.752;2022-10-23T02:23:14;6.55;;;0.90;;
55368;SDS011;41247;49.736;8.752;2022-10-23T02:27:13;10.75;;;1.20;;
55368;SDS011;41247;49.736;8.752;2022-10-23T02:30:59;4.65;;;1.02;;
55368;SDS011;41247;49.736;8.752;2022-10-23T02:34:42;6.93;;;1.42;;
55368;SDS011;41247;49.736;8.752;2022-10-23T02:38:30;5.15;;;1.27;;
55368;SDS011;41247;49.736;8.752;2022-10-23T02:42:25;4.03;;;1.30;;
55368;SDS011;41247;49.736;8.752;2022-10-23T02:46:24;5.40;;;1.00;;
55368;SDS011;41247;49.736;8.752;2022-10-23T02:50:36;9.25;;;1.30;;
55368;SDS011;41247;49.736;8.752;2022-10-23T02:54:32;8.60;;;1.02;;
55368;SDS011;41247;49.736;8.752;2022-10-23T02:58:36;3.90;;;0.68;;
55368;SDS011;41247;49.736;8.752;2022-10-23T03:02:37;3.28;;;0.95;;
55368;SDS011;41247;49.736;8.752;2022-10-23T03:06:37;4.90;;;0.80;;
55368;SDS011;41247;49.736;8.752;2022-10-23T03:10:18;5.18;;;0.95;;
55368;SDS011;41247;49.736;8.752;2022-10-23T03:13:59;1.27;;;0.47;;
55368;SDS011;41247;49.736;8.752;2022-10-23T03:17:39;5.95;;;0.80;;
55368;SDS011;41247;49.736;8.752;2022-10-23T03:21:20;3.88;;;0.70;;
55368;SDS011;41247;49.736;8.752;2022-10-23T03:25:02;1.73;;;0.60;;
55368;SDS011;41247;49.736;8.752;2022-10-23T03:28:43;5.05;;;0.80;;
55368;SDS011;41247;49.736;8.752;2022-10-23T03:32:24;6.38;;;0.80;;
55368;SDS011;41247;49.736;8.752;2022-10-23T03:36:04;4.93;;;0.70;;
55368;SDS011;41247;49.736;8.752;2022-10-23T03:39:45;10.48;;;1.00;;
55368;SDS011;41247;49.736;8.752;2022-10-23T03:43:26;7.13;;;1.00;;
55368;SDS011;41247;49.736;8.752;2022-10-23T03:47:06;6.57;;;1.30;;
55368;SDS011;41247;49.736;8.752;2022-10-23T03:50:47;10.82;;;1.00;;
55368;SDS011;41247;49.736;8.752;2022-10-23T03:54:28;9.30;;;1.38;;
55368;SDS011;41247;49.736;8.752;2022-10-23T03:58:08;5.93;;;0.80;;
55368;SDS011;41247;49.736;8.752;2022-10-23T04:01:49;4.60;;;1.00;;
55368;SDS011;41247;49.736;8.752;2022-10-23T04:05:30;6.00;;;0.90;;
55368;SDS011;41247;49.736;8.752;2022-10-23T04:09:10;3.67;;;0.70;;
55368;SDS011;41247;49.736;8.752;2022-10-23T04:12:51;4.55;;;0.70;;
55368;SDS011;41247;49.736;8.752;2022-10-23T04:16:31;7.90;;;0.80;;
55368;SDS011;41247;49.736;8.752;2022-10-23T04:20:12;7.22;;;0.70;;
55368;SDS011;41247;49.736;8.752;2022-10-23T04:23:54;7.65;;;0.80;;
55368;SDS011;41247;49.736;8.752;2022-10-23T04:27:35;7.10;;;0.70;;
55368;SDS011;41247;49.736;8.752;2022-10-23T04:31:16;4.80;;;0.55;;
55368;SDS011;41247;49.736;8.752;2022-10-23T04:34:56;1.58;;;0.60;;
55368;SDS011;41247;49.736;8.752;2022-10-23T04:38:37;9.68;;;1.00;;
55368;SDS011;41247;49.736;8.752;2022-10-23T04:42:19;3.78;;;1.10;;
55368;SDS011;41247;49.736;8.752;2022-10-23T04:45:59;4.13;;;1.00;;
55368;SDS011;41247;49.736;8.752;2022-10-23T04:49:40;6.20;;;0.90;;
55368;SDS011;41247;49.736;8.752;2022-10-23T04:53:21;4.07;;;0.75;;
55368;SDS011;41247;49.736;8.752;2022-10-23T04:57:01;9.27;;;1.02;;
55368;SDS011;41247;49.736;8.752;2022-10-23T05:00:42;5.70;;;0.77;;
55368;SDS011;41247;49.736;8.752;2022-10-23T05:04:23;5.80;;;0.77;;
55368;SDS011;41247;49.736;8.752;2022-10-23T05:08:04;2.60;;;0.80;;
55368;SDS011;41247;49.736;8.752;2022-10-23T05:11:45;6.32;;;0.70;;
55368;SDS011;41247;49.736;8.752;2022-10-23T05:15:25;2.28;;;0.80;;
55368;SDS011;41247;49.736;8.752;2022-10-23T05:19:06;2.30;;;0.80;;
55368;SDS011;41247;49.736;8.752;2022-10-23T05:22:50;2.20;;;0.80;;
55368;SDS011;41247;49.736;8.752;2022-10-23T05:26:33;2.03;;;0.70;;
55368;SDS011;41247;49.736;8.752;2022-10-23T05:30:14;4.20;;;1.00;;
55368;SDS011;41247;49.736;8.752;2022-10-23T05:33:54;6.55;;;1.00;;
55368;SDS011;41247;49.736;8.752;2022-10-23T05:37:36;2.45;;;0.77;;
55368;SDS011;41247;49.736;8.752;2022-10-23T05:41:19;3.00;;;0.70;;
55368;SDS011;41247;49.736;8.752;2022-10-23T05:45:00;3.80;;;0.80;;
55368;SDS011;41247;49.736;8.752;2022-10-23T05:48:40;1.95;;;0.70;;
55368;SDS011;41247;49.736;8.752;2022-10-23T05:52:21;3.13;;;0.60;;
55368;SDS011;41247;49.736;8.752;2022-10-23T05:56:03;4.03;;;0.70;;
55368;SDS011;41247;49.736;8.752;2022-10-23T05:59:47;2.30;;;0.80;;
55368;SDS011;41247;49.736;8.752;2022-10-23T06:03:28;2.38;;;0.60;;
55368;SDS011;41247;49.736;8.752;2022-10-23T06:07:08;3.58;;;0.80;;
55368;SDS011;41247;49.736;8.752;2022-10-23T06:10:49;2.38;;;0.68;;
55368;SDS011;41247;49.736;8.752;2022-10-23T06:14:30;7.82;;;0.90;;
55368;SDS011;41247;49.736;8.752;2022-10-23T06:18:11;3.28;;;0.50;;
55368;SDS011;41247;49.736;8.752;2022-10-23T06:21:51;1.85;;;0.60;;
55368;SDS011;41247;49.736;8.752;2022-10-23T06:25:32;4.05;;;0.73;;
55368;SDS011;41247;49.736;8.752;2022-10-23T06:29:12;4.03;;;0.80;;
55368;SDS011;41247;49.736;8.752;2022-10-23T06:32:53;4.95;;;0.77;;
55368;SDS011;41247;49.736;8.752;2022-10-23T06:36:34;6.75;;;0.88;;
55368;SDS011;41247;49.736;8.752;2022-10-23T06:40:14;2.60;;;0.75;;
55368;SDS011;41247;49.736;8.752;2022-10-23T06:43:55;8.75;;;0.85;;
55368;SDS011;41247;49.736;8.752;2022-10-23T06:47:35;2.80;;;1.00;;
55368;SDS011;41247;49.736;8.752;2022-10-23T06:51:16;1.48;;;0.80;;
55368;SDS011;41247;49.736;8.752;2022-10-23T06:54:57;4.93;;;1.00;;
55368;SDS011;41247;49.736;8.752;2022-10-23T06:58:38;5.28;;;0.90;;
55368;SDS011;41247;49.736;8.752;2022-10-23T07:02:19;3.88;;;0.70;;
55368;SDS011;41247;49.736;8.752;2022-10-23T07:06:03;4.63;;;1.08;;
55368;SDS011;41247;49.736;8.752;2022-10-23T07:09:46;5.95;;;0.90;;
55368;SDS011;41247;49.736;8.752;2022-10-23T07:13:29;4.00;;;0.95;;
55368;SDS011;41247;49.736;8.752;2022-10-23T07:17:10;2.88;;;0.90;;
55368;SDS011;41247;49.736;8.752;2022-10-23T07:20:56;8.05;;;1.00;;
55368;SDS011;41247;49.736;8.752;2022-10-23T07:24:37;5.25;;;0.80;;
55368;SDS011;41247;49.736;8.752;2022-10-23T07:28:18;3.33;;;0.75;;
55368;SDS011;41247;49.736;8.752;2022-10-23T07:31:58;2.33;;;0.65;;
55368;SDS011;41247;49.736;8.752;2022-10-23T07:35:39;10.65;;;0.60;;
55368;SDS011;41247;49.736;8.752;2022-10-23T07:39:20;5.93;;;0.70;;
55368;SDS011;41247;49.736;8.752;2022-10-23T07:43:00;2.28;;;0.40;;
55368;SDS011;41247;49.736;8.752;2022-10-23T07:46:41;2.65;;;0.50;;
55368;SDS011;41247;49.736;8.752;2022-10-23T07:50:22;5.97;;;0.60;;
55368;SDS011;41247;49.736;8.752;2022-10-23T07:54:02;2.40;;;0.60;;
55368;SDS011;41247;49.736;8.752;2022-10-23T07:57:43;5.93;;;0.47;;
55368;SDS011;41247;49.736;8.752;2022-10-23T08:05:18;1.70;;;0.70;;
55368;SDS011;41247;49.736;8.752;2022-10-23T08:08:59;10.32;;;0.65;;
55368;SDS011;41247;49.736;8.752;2022-10-23T08:12:40;2.55;;;0.32;;
55368;SDS011;41247;49.736;8.752;2022-10-23T08:16:21;3.50;;;0.30;;
55368;SDS011;41247;49.736;8.752;2022-10-23T08:20:02;8.88;;;0.73;;
55368;SDS011;41247;49.736;8.752;2022-10-23T08:23:43;3.60;;;0.50;;
55368;SDS011;41247;49.736;8.752;2022-10-23T08:27:24;2.08;;;0.45;;
55368;SDS011;41247;49.736;8.752;2022-10-23T08:31:09;0.75;;;0.20;;
55368;SDS011;41247;49.736;8.752;2022-10-23T08:34:52;1.00;;;0.30;;
55368;SDS011;41247;49.736;8.752;2022-10-23T08:38:33;1.48;;;0.30;;
55368;SDS011;41247;49.736;8.752;2022-10-23T08:42:20;1.35;;;0.47;;
55368;SDS011;41247;49.736;8.752;2022-10-23T08:46:08;7.00;;;0.47;;
55368;SDS011;41247;49.736;8.752;2022-10-23T08:49:55;3.63;;;0.35;;
55368;SDS011;41247;49.736;8.752;2022-10-23T08:57:56;2.83;;;0.35;;
55368;SDS011;41247;49.736;8.752;2022-10-23T09:01:55;4.95;;;0.30;;
55368;SDS011;41247;49.736;8.752;2022-10-23T09:10:05;1.75;;;0.35;;
55368;SDS011;41247;49.736;8.752;2022-10-23T09:18:46;2.22;;;0.47;;
55368;SDS011;41247;49.736;8.752;2022-10-23T09:22:28;3.53;;;0.28;;
55368;SDS011;41247;49.736;8.752;2022-10-23T09:26:13;4.45;;;0.40;;
55368;SDS011;41247;49.736;8.752;2022-10-23T09:29:56;2.10;;;0.40;;
55368;SDS011;41247;49.736;8.752;2022-10-23T09:33:37;2.22;;;0.45;;
55368;SDS011;41247;49.736;8.752;2022-10-23T09:37:22;3.47;;;0.40;;
55368;SDS011;41247;49.736;8.752;2022-10-23T09:44:58;0.60;;;0.20;;
55368;SDS011;41247;49.736;8.752;2022-10-23T09:48:39;2.63;;;0.50;;
55368;SDS011;41247;49.736;8.752;2022-10-23T09:52:21;1.35;;;0.30;;
55368;SDS011;41247;49.736;8.752;2022-10-23T10:04:03;1.70;;;0.30;;
55368;SDS011;41247;49.736;8.752;2022-10-23T10:07:51;3.78;;;0.30;;
55368;SDS011;41247;49.736;8.752;2022-10-23T10:12:27;1.15;;;0.57;;
55368;SDS011;41247;49.736;8.752;2022-10-23T10:16:08;2.15;;;0.38;;
55368;SDS011;41247;49.736;8.752;2022-10-23T10:20:13;1.67;;;0.30;;
55368;SDS011;41247;49.736;8.752;2022-10-23T10:24:35;1.77;;;0.35;;
55368;SDS011;41247;49.736;8.752;2022-10-23T10:32:53;2.25;;;0.50;;
55368;SDS011;41247;49.736;8.752;2022-10-23T10:37:15;1.65;;;0.30;;
55368;SDS011;41247;49.736;8.752;2022-10-23T10:41:36;4.05;;;0.43;;
55368;SDS011;41247;49.736;8.752;2022-10-23T10:45:45;1.83;;;0.35;;
55368;SDS011;41247;49.736;8.752;2022-10-23T10:49:38;3.08;;;0.60;;
55368;SDS011;41247;49.736;8.752;2022-10-23T10:58:41;0.85;;;0.40;;
55368;SDS011;41247;49.736;8.752;2022-10-23T11:02:39;2.50;;;0.50;;
55368;SDS011;41247;49.736;8.752;2022-10-23T11:06:26;6.57;;;0.57;;
55368;SDS011;41247;49.736;8.752;2022-10-23T11:10:15;4.13;;;0.60;;
55368;SDS011;41247;49.736;8.752;2022-10-23T11:13:57;2.33;;;0.50;;
55368;SDS011;41247;49.736;8.752;2022-10-23T11:17:38;1.40;;;0.52;;
55368;SDS011;41247;49.736;8.752;2022-10-23T11:21:31;2.50;;;0.80;;
55368;SDS011;41247;49.736;8.752;2022-10-23T11:29:39;1.77;;;0.50;;
55368;SDS011;41247;49.736;8.752;2022-10-23T11:41:59;1.80;;;0.65;;
55368;SDS011;41247;49.736;8.752;2022-10-23T11:49:26;5.05;;;0.30;;
55368;SDS011;41247;49.736;8.752;2022-10-23T11:53:09;3.45;;;0.30;;
55368;SDS011;41247;49.736;8.752;2022-10-23T12:00:55;3.53;;;0.40;;
55368;SDS011;41247;49.736;8.752;2022-10-23T12:04:45;3.17;;;0.40;;
55368;SDS011;41247;49.736;8.752;2022-10-23T12:08:29;4.60;;;0.50;;
55368;SDS011;41247;49.736;8.752;2022-10-23T12:12:15;3.17;;;0.68;;
55368;SDS011;41247;49.736;8.752;2022-10-23T12:16:15;3.60;;;0.40;;
55368;SDS011;41247;49.736;8.752;2022-10-23T12:20:09;2.22;;;0.47;;
55368;SDS011;41247;49.736;8.752;2022-10-23T12:28:07;4.10;;;0.38;;
55368;SDS011;41247;49.736;8.752;2022-10-23T12:41:10;5.05;;;0.70;;
55368;SDS011;41247;49.736;8.752;2022-10-23T12:49:12;1.98;;;0.40;;
55368;SDS011;41247;49.736;8.752;2022-10-23T12:52:56;4.43;;;0.50;;
55368;SDS011;41247;49.736;8.752;2022-10-23T12:56:46;1.90;;;0.50;;
55368;SDS011;41247;49.736;8.752;2022-10-23T13:00:27;5.13;;;0.60;;
55368;SDS011;41247;49.736;8.752;2022-10-23T13:04:22;2.65;;;0.40;;
55368;SDS011;41247;49.736;8.752;2022-10-23T13:08:13;3.25;;;0.50;;
55368;SDS011;41247;49.736;8.752;2022-10-23T13:11:54;2.03;;;0.50;;
55368;SDS011;41247;49.736;8.752;2022-10-23T13:15:37;2.90;;;0.50;;
55368;SDS011;41247;49.736;8.752;2022-10-23T13:19:23;4.82;;;0.57;;
55368;SDS011;41247;49.736;8.752;2022-10-23T13:26:56;4.75;;;0.40;;
55368;SDS011;41247;49.736;8.752;2022-10-23T13:30:39;4.53;;;0.50;;
55368;SDS011;41247;49.736;8.752;2022-10-23T13:34:23;3.03;;;0.57;;
55368;SDS011;41247;49.736;8.752;2022-10-23T13:38:07;2.10;;;0.50;;
55368;SDS011;41247;49.736;8.752;2022-10-23T13:41:49;8.88;;;0.60;;
55368;SDS011;41247;49.736;8.752;2022-10-23T13:45:29;7.90;;;0.60;;
55368;SDS011;41247;49.736;8.752;2022-10-23T13:49:14;1.33;;;0.60;;
55368;SDS011;41247;49.736;8.752;2022-10-23T13:52:55;3.13;;;0.70;;
55368;SDS011;41247;49.736;8.752;2022-10-23T13:56:35;5.07;;;0.55;;
55368;SDS011;41247;49.736;8.752;2022-10-23T14:00:16;6.45;;;0.80;;
55368;SDS011;41247;49.736;8.752;2022-10-23T14:03:58;4.70;;;0.77;;
55368;SDS011;41247;49.736;8.752;2022-10-23T14:07:39;2.35;;;0.60;;
55368;SDS011;41247;49.736;8.752;2022-10-23T14:11:19;5.85;;;0.50;;
55368;SDS011;41247;49.736;8.752;2022-10-23T14:15:00;5.80;;;0.70;;
55368;SDS011;41247;49.736;8.752;2022-10-23T14:18:41;2.45;;;0.65;;
55368;SDS011;41247;49.736;8.752;2022-10-23T14:22:22;1.90;;;0.40;;
55368;SDS011;41247;49.736;8.752;2022-10-23T14:26:03;7.00;;;0.60;;
55368;SDS011;41247;49.736;8.752;2022-10-23T14:29:46;5.28;;;0.70;;
55368;SDS011;41247;49.736;8.752;2022-10-23T14:33:27;8.50;;;0.88;;
55368;SDS011;41247;49.736;8.752;2022-10-23T14:37:07;4.68;;;0.50;;
55368;SDS011;41247;49.736;8.752;2022-10-23T14:40:48;14.45;;;1.00;;
55368;SDS011;41247;49.736;8.752;2022-10-23T14:44:28;1.80;;;0.50;;
55368;SDS011;41247;49.736;8.752;2022-10-23T14:48:09;5.32;;;1.08;;
55368;SDS011;41247;49.736;8.752;2022-10-23T14:51:50;4.20;;;1.00;;
55368;SDS011;41247;49.736;8.752;2022-10-23T14:55:30;3.30;;;0.80;;
55368;SDS011;41247;49.736;8.752;2022-10-23T14:59:11;6.00;;;1.10;;
55368;SDS011;41247;49.736;8.752;2022-10-23T15:02:51;7.95;;;0.90;;
55368;SDS011;41247;49.736;8.752;2022-10-23T15:06:33;6.00;;;1.30;;
55368;SDS011;41247;49.736;8.752;2022-10-23T15:10:14;6.07;;;1.10;;
55368;SDS011;41247;49.736;8.752;2022-10-23T15:13:57;4.30;;;1.20;;
55368;SDS011;41247;49.736;8.752;2022-10-23T15:21:19;6.28;;;1.25;;
55368;SDS011;41247;49.736;8.752;2022-10-23T15:25:00;9.20;;;1.20;;
55368;SDS011;41247;49.736;8.752;2022-10-23T15:28:40;10.02;;;1.60;;
55368;SDS011;41247;49.736;8.752;2022-10-23T15:32:21;7.80;;;1.25;;
55368;SDS011;41247;49.736;8.752;2022-10-23T15:36:02;7.32;;;1.33;;
55368;SDS011;41247;49.736;8.752;2022-10-23T15:39:43;11.30;;;1.40;;
55368;SDS011;41247;49.736;8.752;2022-10-23T15:43:23;5.40;;;1.02;;
55368;SDS011;41247;49.736;8.752;2022-10-23T15:47:04;6.55;;;1.40;;
55368;SDS011;41247;49.736;8.752;2022-10-23T15:50:44;10.52;;;1.65;;
55368;SDS011;41247;49.736;8.752;2022-10-23T15:54:25;8.27;;;1.80;;
55368;SDS011;41247;49.736;8.752;2022-10-23T15:58:06;10.73;;;1.40;;
55368;SDS011;41247;49.736;8.752;2022-10-23T16:01:46;7.78;;;1.42;;
55368;SDS011;41247;49.736;8.752;2022-10-23T16:05:28;8.05;;;1.63;;
55368;SDS011;41247;49.736;8.752;2022-10-23T16:09:08;9.77;;;1.67;;
55368;SDS011;41247;49.736;8.752;2022-10-23T16:12:49;7.10;;;1.60;;
55368;SDS011;41247;49.736;8.752;2022-10-23T16:16:31;10.68;;;1.92;;
55368;SDS011;41247;49.736;8.752;2022-10-23T16:20:13;10.95;;;1.75;;
55368;SDS011;41247;49.736;8.752;2022-10-23T16:23:55;16.65;;;1.58;;
55368;SDS011;41247;49.736;8.752;2022-10-23T16:27:37;13.23;;;1.70;;
55368;SDS011;41247;49.736;8.752;2022-10-23T16:31:18;16.58;;;2.10;;
55368;SDS011;41247;49.736;8.752;2022-10-23T16:34:59;12.52;;;1.77;;
55368;SDS011;41247;49.736;8.752;2022-10-23T16:38:40;10.05;;;1.73;;
55368;SDS011;41247;49.736;8.752;2022-10-23T16:42:20;10.73;;;1.60;;
55368;SDS011;41247;49.736;8.752;2022-10-23T16:46:14;5.18;;;1.60;;
55368;SDS011;41247;49.736;8.752;2022-10-23T16:49:57;9.27;;;1.73;;
55368;SDS011;41247;49.736;8.752;2022-10-23T16:53:38;17.73;;;2.05;;
55368;SDS011;41247;49.736;8.752;2022-10-23T16:57:19;8.68;;;1.50;;
55368;SDS011;41247;49.736;8.752;2022-10-23T17:01:04;16.02;;;2.22;;
55368;SDS011;41247;49.736;8.752;2022-10-23T17:04:48;11.93;;;1.73;;
55368;SDS011;41247;49.736;8.752;2022-10-23T17:08:29;13.90;;;2.20;;
55368;SDS011;41247;49.736;8.752;2022-10-23T17:12:10;13.70;;;2.75;;
55368;SDS011;41247;49.736;8.752;2022-10-23T17:15:50;11.52;;;2.33;;
55368;SDS011;41247;49.736;8.752;2022-10-23T17:19:31;13.57;;;2.08;;
55368;SDS011;41247;49.736;8.752;2022-10-23T17:23:12;12.00;;;1.73;;
55368;SDS011;41247;49.736;8.752;2022-10-23T17:26:52;11.07;;;1.80;;
55368;SDS011;41247;49.736;8.752;2022-10-23T17:30:36;8.60;;;1.80;;
55368;SDS011;41247;49.736;8.752;2022-10-23T17:34:18;14.25;;;2.00;;
55368;SDS011;41247;49.736;8.752;2022-10-23T17:38:01;11.07;;;2.00;;
55368;SDS011;41247;49.736;8.752;2022-10-23T17:41:42;10.38;;;2.08;;
55368;SDS011;41247;49.736;8.752;2022-10-23T17:45:24;9.93;;;1.73;;
55368;SDS011;41247;49.736;8.752;2022-10-23T17:49:04;9.02;;;1.55;;
55368;SDS011;41247;49.736;8.752;2022-10-23T17:52:45;16.20;;;2.00;;
55368;SDS011;41247;49.736;8.752;2022-10-23T17:56:27;10.25;;;2.50;;
55368;SDS011;41247;49.736;8.752;2022-10-23T18:00:10;15.27;;;2.20;;
55368;SDS011;41247;49.736;8.752;2022-10-23T18:03:51;11.63;;;3.50;;
55368;SDS011;41247;49.736;8.752;2022-10-23T18:07:34;19.93;;;3.43;;
55368;SDS011;41247;49.736;8.752;2022-10-23T18:11:18;17.20;;;3.88;;
55368;SDS011;41247;49.736;8.752;2022-10-23T18:15:03;23.67;;;6.20;;
55368;SDS011;41247;49.736;8.752;2022-10-23T18:18:44;22.15;;;7.28;;
55368;SDS011;41247;49.736;8.752;2022-10-23T18:22:26;26.05;;;4.68;;
55368;SDS011;41247;49.736;8.752;2022-10-23T18:26:11;17.35;;;5.78;;
55368;SDS011;41247;49.736;8.752;2022-10-23T18:30:04;9.75;;;4.60;;
55368;SDS011;41247;49.736;8.752;2022-10-23T18:33:46;13.63;;;3.88;;
55368;SDS011;41247;49.736;8.752;2022-10-23T18:37:26;9.82;;;3.50;;
55368;SDS011;41247;49.736;8.752;2022-10-23T18:41:07;11.60;;;3.38;;
55368;SDS011;41247;49.736;8.752;2022-10-23T18:44:47;10.50;;;3.10;;
55368;SDS011;41247;49.736;8.752;2022-10-23T18:48:29;10.02;;;4.20;;
55368;SDS011;41247;49.736;8.752;2022-10-23T18:52:10;14.95;;;3.67;;
55368;SDS011;41247;49.736;8.752;2022-10-23T18:55:50;15.15;;;3.25;;
55368;SDS011;41247;49.736;8.752;2022-10-23T18:59:31;19.27;;;3.35;;
55368;SDS011;41247;49.736;8.752;2022-10-23T19:03:12;13.13;;;3.65;;
55368;SDS011;41247;49.736;8.752;2022-10-23T19:06:54;7.80;;;3.15;;
55368;SDS011;41247;49.736;8.752;2022-10-23T19:10:34;8.00;;;3.33;;
55368;SDS011;41247;49.736;8.752;2022-10-23T19:18:00;8.77;;;3.20;;
55368;SDS011;41247;49.736;8.752;2022-10-23T19:21:42;12.93;;;3.35;;
55368;SDS011;41247;49.736;8.752;2022-10-23T19:25:25;12.77;;;3.15;;
55368;SDS011;41247;49.736;8.752;2022-10-23T19:29:10;10.20;;;3.50;;
55368;SDS011;41247;49.736;8.752;2022-10-23T19:32:57;10.38;;;3.13;;
55368;SDS011;41247;49.736;8.752;2022-10-23T19:36:38;17.08;;;3.38;;
55368;SDS011;41247;49.736;8.752;2022-10-23T19:40:19;12.68;;;2.78;;
55368;SDS011;41247;49.736;8.752;2022-10-23T19:43:59;7.68;;;2.78;;
55368;SDS011;41247;49.736;8.752;2022-10-23T19:47:40;16.02;;;3.38;;
55368;SDS011;41247;49.736;8.752;2022-10-23T19:51:21;11.10;;;3.50;;
55368;SDS011;41247;49.736;8.752;2022-10-23T19:55:02;13.15;;;2.80;;
55368;SDS011;41247;49.736;8.752;2022-10-23T19:58:44;19.67;;;3.13;;
55368;SDS011;41247;49.736;8.752;2022-10-23T20:02:25;14.43;;;3.25;;
55368;SDS011;41247;49.736;8.752;2022-10-23T20:06:10;8.38;;;2.78;;
55368;SDS011;41247;49.736;8.752;2022-10-23T20:09:52;12.40;;;2.60;;
55368;SDS011;41247;49.736;8.752;2022-10-23T20:13:33;10.40;;;3.17;;
55368;SDS011;41247;49.736;8.752;2022-10-23T20:17:14;14.32;;;2.70;;
55368;SDS011;41247;49.736;8.752;2022-10-23T20:20:55;13.43;;;2.53;;
55368;SDS011;41247;49.736;8.752;2022-10-23T20:24:35;7.70;;;2.40;;
55368;SDS011;41247;49.736;8.752;2022-10-23T20:28:16;12.02;;;2.63;;
55368;SDS011;41247;49.736;8.752;2022-10-23T20:31:57;8.13;;;2.08;;
55368;SDS011;41247;49.736;8.752;2022-10-23T20:35:40;11.90;;;2.80;;
55368;SDS011;41247;49.736;8.752;2022-10-23T20:39:22;10.52;;;2.47;;
55368;SDS011;41247;49.736;8.752;2022-10-23T20:43:03;16.73;;;2.13;;
55368;SDS011;41247;49.736;8.752;2022-10-23T20:46:44;9.52;;;2.63;;
55368;SDS011;41247;49.736;8.752;2022-10-23T20:50:25;9.60;;;2.33;;
55368;SDS011;41247;49.736;8.752;2022-10-23T20:54:05;12.85;;;2.40;;
55368;SDS011;41247;49.736;8.752;2022-10-23T20:57:46;14.45;;;2.22;;
55368;SDS011;41247;49.736;8.752;2022-10-23T21:01:27;15.10;;;2.58;;
55368;SDS011;41247;49.736;8.752;2022-10-23T21:05:09;14.80;;;2.45;;
55368;SDS011;41247;49.736;8.752;2022-10-23T21:08:52;17.15;;;2.58;;
55368;SDS011;41247;49.736;8.752;2022-10-23T21:12:37;17.17;;;2.78;;
55368;SDS011;41247;49.736;8.752;2022-10-23T21:16:31;8.88;;;2.30;;
55368;SDS011;41247;49.736;8.752;2022-10-23T21:20:15;15.48;;;2.63;;
55368;SDS011;41247;49.736;8.752;2022-10-23T21:23:56;8.48;;;2.78;;
55368;SDS011;41247;49.736;8.752;2022-10-23T21:27:37;11.43;;;2.50;;
55368;SDS011;41247;49.736;8.752;2022-10-23T21:31:18;13.80;;;2.80;;
55368;SDS011;41247;49.736;8.752;2022-10-23T21:35:00;12.20;;;2.63;;
55368;SDS011;41247;49.736;8.752;2022-10-23T21:38:40;12.80;;;2.45;;
55368;SDS011;41247;49.736;8.752;2022-10-23T21:42:23;14.80;;;2.55;;
55368;SDS011;41247;49.736;8.752;2022-10-23T21:46:04;14.70;;;2.20;;
55368;SDS011;41247;49.736;8.752;2022-10-23T21:49:49;13.07;;;2.45;;
55368;SDS011;41247;49.736;8.752;2022-10-23T21:53:30;11.77;;;2.15;;
55368;SDS011;41247;49.736;8.752;2022-10-23T21:57:11;9.32;;;2.50;;
55368;SDS011;41247;49.736;8.752;2022-10-23T22:00:53;13.25;;;2.47;;
55368;SDS011;41247;49.736;8.752;2022-10-23T22:04:34;10.50;;;2.75;;
55368;SDS011;41247;49.736;8.752;2022-10-23T22:08:15;18.85;;;2.78;;
55368;SDS011;41247;49.736;8.752;2022-10-23T22:11:55;11.65;;;3.00;;
55368;SDS011;41247;49.736;8.752;2022-10-23T22:15:36;18.65;;;3.20;;
55368;SDS011;41247;49.736;8.752;2022-10-23T22:19:17;17.35;;;3.40;;
55368;SDS011;41247;49.736;8.752;2022-10-23T22:23:00;13.17;;;3.10;;
55368;SDS011;41247;49.736;8.752;2022-10-23T22:26:41;12.95;;;2.80;;
55368;SDS011;41247;49.736;8.752;2022-10-23T22:30:34;21.83;;;3.28;;
55368;SDS011;41247;49.736;8.752;2022-10-23T22:34:17;18.60;;;3.35;;
55368;SDS011;41247;49.736;8.752;2022-10-23T22:38:00;13.07;;;3.53;;
55368;SDS011;41247;49.736;8.752;2022-10-23T22:41:41;18.63;;;2.90;;
55368;SDS011;41247;49.736;8.752;2022-10-23T22:45:22;19.27;;;3.58;;
55368;SDS011;41247;49.736;8.752;2022-10-23T22:49:02;23.73;;;4.03;;
55368;SDS011;41247;49.736;8.752;2022-10-23T22:52:43;21.17;;;3.38;;
55368;SDS011;41247;49.736;8.752;2022-10-23T22:56:25;13.98;;;3.25;;
55368;SDS011;41247;49.736;8.752;2022-10-23T23:03:49;24.65;;;3.40;;
55368;SDS011;41247;49.736;8.752;2022-10-23T23:07:30;15.82;;;3.38;;
55368;SDS011;41247;49.736;8.752;2022-10-23T23:11:11;19.60;;;3.47;;
55368;SDS011;41247;49.736;8.752;2022-10-23T23:14:54;20.48;;;3.63;;
55368;SDS011;41247;49.736;8.752;2022-10-23T23:18:34;14.98;;;3.45;;
55368;SDS011;41247;49.736;8.752;2022-10-23T23:22:15;17.77;;;3.55;;
55368;SDS011;41247;49.736;8.752;2022-10-23T23:25:57;22.23;;;3.45;;
55368;SDS011;41247;49.736;8.752;2022-10-23T23:29:38;15.07;;;4.70;;
55368;SDS011;41247;49.736;8.752;2022-10-23T23:33:19;20.80;;;3.70;;
55368;SDS011;41247;49.736;8.752;2022-10-23T23:36:59;14.90;;;4.00;;
55368;SDS011;41247;49.736;8.752;2022-10-23T23:40:40;27.35;;;3.92;;
55368;SDS011;41247;49.736;8.752;2022-10-23T23:44:28;15.73;;;3.28;;
55368;SDS011;41247;49.736;8.752;2022-10-23T23:48:09;20.17;;;3.80;;
55368;SDS011;41247;49.736;8.752;2022-10-23T23:51:50;17.80;;;3.97;;
55368;SDS011;41247;49.736;8.752;2022-10-23T23:55:31;21.52;;;3.83;;
55368;SDS011;41247;49.736;8.752;2022-10-23T23:59:13;16.90;;;3.67;;
